sensor_id;sensor_type;location;lat;lon;timestamp;temperature;humidity
64638;HTU21D;51049;45.046;38.950;2023-03-17T00:01:08;9.26;68.97
64638;HTU21D;51049;45.046;38.950;2023-03-17T00:03:42;9.27;69.00
64638;HTU21D;51049;45.046;38.950;2023-03-17T00:06:24;9.27;69.03
64638;HTU21D;51049;45.046;38.950;2023-03-17T00:08:58;9.27;68.97
64638;HTU21D;51049;45.046;38.950;2023-03-17T00:11:27;9.30;68.97
64638;HTU21D;51049;45.046;38.950;2023-03-17T00:13:53;9.30;68.97
64638;HTU21D;51049;45.046;38.950;2023-03-17T00:16:26;9.29;69.00
64638;HTU21D;51049;45.046;38.950;2023-03-17T00:18:54;9.30;69.01
64638;HTU21D;51049;45.046;38.950;2023-03-17T00:21:31;9.31;69.06
64638;HTU21D;51049;45.046;38.950;2023-03-17T00:23:57;9.30;69.06
64638;HTU21D;51049;45.046;38.950;2023-03-17T00:26:29;9.30;69.10
64638;HTU21D;51049;45.046;38.950;2023-03-17T00:28:58;9.31;69.10
64638;HTU21D;51049;45.046;38.950;2023-03-17T00:31:25;9.31;69.15
64638;HTU21D;51049;45.046;38.950;2023-03-17T00:34:00;9.32;69.22
64638;HTU21D;51049;45.046;38.950;2023-03-17T00:36:29;9.33;69.20
64638;HTU21D;51049;45.046;38.950;2023-03-17T00:38:56;9.35;69.23
64638;HTU21D;51049;45.046;38.950;2023-03-17T00:41:24;9.36;69.23
64638;HTU21D;51049;45.046;38.950;2023-03-17T00:43:51;9.37;69.25
64638;HTU21D;51049;45.046;38.950;2023-03-17T00:46:27;9.38;69.29
64638;HTU21D;51049;45.046;38.950;2023-03-17T00:48:56;9.38;69.29
64638;HTU21D;51049;45.046;38.950;2023-03-17T00:51:22;9.38;69.35
64638;HTU21D;51049;45.046;38.950;2023-03-17T00:53:48;9.38;69.37
64638;HTU21D;51049;45.046;38.950;2023-03-17T00:56:21;9.37;69.45
64638;HTU21D;51049;45.046;38.950;2023-03-17T00:58:50;9.37;69.48
64638;HTU21D;51049;45.046;38.950;2023-03-17T01:01:25;9.37;69.52
64638;HTU21D;51049;45.046;38.950;2023-03-17T01:03:58;9.34;69.58
64638;HTU21D;51049;45.046;38.950;2023-03-17T01:06:30;9.31;69.63
64638;HTU21D;51049;45.046;38.950;2023-03-17T01:08:57;9.31;69.63
64638;HTU21D;51049;45.046;38.950;2023-03-17T01:11:25;9.29;69.68
64638;HTU21D;51049;45.046;38.950;2023-03-17T01:14:02;9.26;69.78
64638;HTU21D;51049;45.046;38.950;2023-03-17T01:16:32;9.24;69.76
64638;HTU21D;51049;45.046;38.950;2023-03-17T01:19:01;9.21;69.86
64638;HTU21D;51049;45.046;38.950;2023-03-17T01:21:30;9.19;69.91
64638;HTU21D;51049;45.046;38.950;2023-03-17T01:23:57;9.17;69.95
64638;HTU21D;51049;45.046;38.950;2023-03-17T01:26:28;9.16;69.94
64638;HTU21D;51049;45.046;38.950;2023-03-17T01:29:01;9.15;69.97
64638;HTU21D;51049;45.046;38.950;2023-03-17T01:31:34;9.14;69.98
64638;HTU21D;51049;45.046;38.950;2023-03-17T01:34:00;9.14;69.99
64638;HTU21D;51049;45.046;38.950;2023-03-17T01:36:27;9.12;70.01
64638;HTU21D;51049;45.046;38.950;2023-03-17T01:38:53;9.08;70.06
64638;HTU21D;51049;45.046;38.950;2023-03-17T01:41:19;9.08;70.09
64638;HTU21D;51049;45.046;38.950;2023-03-17T01:43:46;9.05;70.13
64638;HTU21D;51049;45.046;38.950;2023-03-17T01:46:19;9.02;70.18
64638;HTU21D;51049;45.046;38.950;2023-03-17T01:49:06;8.98;70.26
64638;HTU21D;51049;45.046;38.950;2023-03-17T01:52:12;8.98;70.27
64638;HTU21D;51049;45.046;38.950;2023-03-17T01:57:36;8.95;70.29
64638;HTU21D;51049;45.046;38.950;2023-03-17T02:00:17;8.93;70.29
64638;HTU21D;51049;45.046;38.950;2023-03-17T02:02:55;8.91;70.32
64638;HTU21D;51049;45.046;38.950;2023-03-17T02:05:27;8.89;70.38
64638;HTU21D;51049;45.046;38.950;2023-03-17T02:07:56;8.88;70.45
64638;HTU21D;51049;45.046;38.950;2023-03-17T02:10:30;8.85;70.49
64638;HTU21D;51049;45.046;38.950;2023-03-17T02:12:59;8.80;70.59
64638;HTU21D;51049;45.046;38.950;2023-03-17T02:18:08;8.77;70.68
64638;HTU21D;51049;45.046;38.950;2023-03-17T02:23:06;8.73;70.80
64638;HTU21D;51049;45.046;38.950;2023-03-17T02:25:33;8.72;70.86
64638;HTU21D;51049;45.046;38.950;2023-03-17T02:28:17;8.70;70.92
64638;HTU21D;51049;45.046;38.950;2023-03-17T02:30:51;8.72;70.89
64638;HTU21D;51049;45.046;38.950;2023-03-17T02:33:20;8.72;70.88
64638;HTU21D;51049;45.046;38.950;2023-03-17T02:35:46;8.72;70.90
64638;HTU21D;51049;45.046;38.950;2023-03-17T02:38:15;8.72;70.90
64638;HTU21D;51049;45.046;38.950;2023-03-17T02:40:44;8.73;70.93
64638;HTU21D;51049;45.046;38.950;2023-03-17T02:43:13;8.73;70.94
64638;HTU21D;51049;45.046;38.950;2023-03-17T02:45:45;8.75;70.96
64638;HTU21D;51049;45.046;38.950;2023-03-17T02:48:14;8.72;71.02
64638;HTU21D;51049;45.046;38.950;2023-03-17T02:50:41;8.72;71.06
64638;HTU21D;51049;45.046;38.950;2023-03-17T02:53:10;8.73;71.11
64638;HTU21D;51049;45.046;38.950;2023-03-17T02:55:36;8.73;71.13
64638;HTU21D;51049;45.046;38.950;2023-03-17T02:58:02;8.74;71.13
64638;HTU21D;51049;45.046;38.950;2023-03-17T03:00:29;8.76;71.16
64638;HTU21D;51049;45.046;38.950;2023-03-17T03:02:57;8.74;71.18
64638;HTU21D;51049;45.046;38.950;2023-03-17T03:05:26;8.75;71.20
64638;HTU21D;51049;45.046;38.950;2023-03-17T03:07:58;8.76;71.18
64638;HTU21D;51049;45.046;38.950;2023-03-17T03:10:28;8.76;71.21
64638;HTU21D;51049;45.046;38.950;2023-03-17T03:12:56;8.74;71.24
64638;HTU21D;51049;45.046;38.950;2023-03-17T03:15:22;8.74;71.28
64638;HTU21D;51049;45.046;38.950;2023-03-17T03:17:51;8.72;71.34
64638;HTU21D;51049;45.046;38.950;2023-03-17T03:20:18;8.72;71.34
64638;HTU21D;51049;45.046;38.950;2023-03-17T03:22:47;8.70;71.39
64638;HTU21D;51049;45.046;38.950;2023-03-17T03:25:16;8.67;71.46
64638;HTU21D;51049;45.046;38.950;2023-03-17T03:27:43;8.66;71.50
64638;HTU21D;51049;45.046;38.950;2023-03-17T03:30:09;8.66;71.55
64638;HTU21D;51049;45.046;38.950;2023-03-17T03:32:36;8.64;71.55
64638;HTU21D;51049;45.046;38.950;2023-03-17T03:35:20;8.61;71.67
64638;HTU21D;51049;45.046;38.950;2023-03-17T03:37:52;8.59;71.61
64638;HTU21D;51049;45.046;38.950;2023-03-17T03:40:22;8.55;71.72
64638;HTU21D;51049;45.046;38.950;2023-03-17T03:42:48;8.49;71.80
64638;HTU21D;51049;45.046;38.950;2023-03-17T03:45:15;8.47;71.89
64638;HTU21D;51049;45.046;38.950;2023-03-17T03:47:44;8.45;71.93
64638;HTU21D;51049;45.046;38.950;2023-03-17T03:50:11;8.44;71.95
64638;HTU21D;51049;45.046;38.950;2023-03-17T03:52:37;8.43;71.97
64638;HTU21D;51049;45.046;38.950;2023-03-17T03:55:07;8.44;72.01
64638;HTU21D;51049;45.046;38.950;2023-03-17T03:57:34;8.43;72.03
64638;HTU21D;51049;45.046;38.950;2023-03-17T04:00:04;8.43;72.02
64638;HTU21D;51049;45.046;38.950;2023-03-17T04:02:40;8.43;72.01
64638;HTU21D;51049;45.046;38.950;2023-03-17T04:05:18;8.42;72.01
64638;HTU21D;51049;45.046;38.950;2023-03-17T04:07:45;8.44;71.98
64638;HTU21D;51049;45.046;38.950;2023-03-17T04:10:15;8.46;71.95
64638;HTU21D;51049;45.046;38.950;2023-03-17T04:12:45;8.46;71.93
64638;HTU21D;51049;45.046;38.950;2023-03-17T04:15:16;8.46;71.95
64638;HTU21D;51049;45.046;38.950;2023-03-17T04:17:46;8.47;71.95
64638;HTU21D;51049;45.046;38.950;2023-03-17T04:20:18;8.48;72.03
64638;HTU21D;51049;45.046;38.950;2023-03-17T04:22:54;8.51;71.99
64638;HTU21D;51049;45.046;38.950;2023-03-17T04:25:22;8.56;71.96
64638;HTU21D;51049;45.046;38.950;2023-03-17T04:27:52;8.59;71.93
64638;HTU21D;51049;45.046;38.950;2023-03-17T04:30:21;8.64;71.90
64638;HTU21D;51049;45.046;38.950;2023-03-17T04:32:49;8.67;71.86
64638;HTU21D;51049;45.046;38.950;2023-03-17T04:35:22;8.71;71.84
64638;HTU21D;51049;45.046;38.950;2023-03-17T04:37:54;8.75;71.84
64638;HTU21D;51049;45.046;38.950;2023-03-17T04:40:43;8.79;71.89
64638;HTU21D;51049;45.046;38.950;2023-03-17T04:43:26;8.85;71.81
64638;HTU21D;51049;45.046;38.950;2023-03-17T04:45:56;8.90;71.78
64638;HTU21D;51049;45.046;38.950;2023-03-17T04:48:25;8.92;71.74
64638;HTU21D;51049;45.046;38.950;2023-03-17T04:50:54;8.97;71.73
64638;HTU21D;51049;45.046;38.950;2023-03-17T04:53:27;9.00;71.74
64638;HTU21D;51049;45.046;38.950;2023-03-17T04:56:08;9.02;71.74
64638;HTU21D;51049;45.046;38.950;2023-03-17T04:58:39;9.03;71.76
64638;HTU21D;51049;45.046;38.950;2023-03-17T05:01:05;9.04;71.78
64638;HTU21D;51049;45.046;38.950;2023-03-17T05:07:14;9.06;71.87
64638;HTU21D;51049;45.046;38.950;2023-03-17T05:10:09;9.09;71.82
64638;HTU21D;51049;45.046;38.950;2023-03-17T05:20:30;9.16;71.82
64638;HTU21D;51049;45.046;38.950;2023-03-17T05:23:41;9.17;71.82
64638;HTU21D;51049;45.046;38.950;2023-03-17T05:26:36;9.19;71.82
64638;HTU21D;51049;45.046;38.950;2023-03-17T05:29:33;9.21;71.75
64638;HTU21D;51049;45.046;38.950;2023-03-17T05:32:44;9.20;71.76
64638;HTU21D;51049;45.046;38.950;2023-03-17T05:35:31;9.20;71.87
64638;HTU21D;51049;45.046;38.950;2023-03-17T05:38:18;9.23;71.87
64638;HTU21D;51049;45.046;38.950;2023-03-17T05:40:44;9.25;71.90
64638;HTU21D;51049;45.046;38.950;2023-03-17T05:43:54;9.29;71.97
64638;HTU21D;51049;45.046;38.950;2023-03-17T05:46:41;9.32;71.99
64638;HTU21D;51049;45.046;38.950;2023-03-17T05:49:13;9.34;71.91
64638;HTU21D;51049;45.046;38.950;2023-03-17T05:52:03;9.35;72.03
64638;HTU21D;51049;45.046;38.950;2023-03-17T05:54:38;9.41;71.97
64638;HTU21D;51049;45.046;38.950;2023-03-17T05:57:12;9.45;72.02
64638;HTU21D;51049;45.046;38.950;2023-03-17T05:59:38;9.47;71.97
64638;HTU21D;51049;45.046;38.950;2023-03-17T06:02:04;9.48;72.00
64638;HTU21D;51049;45.046;38.950;2023-03-17T06:04:34;9.49;71.99
64638;HTU21D;51049;45.046;38.950;2023-03-17T06:07:04;9.48;72.09
64638;HTU21D;51049;45.046;38.950;2023-03-17T06:09:32;9.47;72.17
64638;HTU21D;51049;45.046;38.950;2023-03-17T06:11:58;9.50;72.20
64638;HTU21D;51049;45.046;38.950;2023-03-17T06:14:25;9.56;72.25
64638;HTU21D;51049;45.046;38.950;2023-03-17T06:16:51;9.63;72.22
64638;HTU21D;51049;45.046;38.950;2023-03-17T06:19:18;9.68;72.21
64638;HTU21D;51049;45.046;38.950;2023-03-17T06:21:44;9.74;72.17
64638;HTU21D;51049;45.046;38.950;2023-03-17T06:24:39;9.81;72.18
64638;HTU21D;51049;45.046;38.950;2023-03-17T06:27:26;9.88;72.13
64638;HTU21D;51049;45.046;38.950;2023-03-17T06:30:22;9.96;71.99
64638;HTU21D;51049;45.046;38.950;2023-03-17T06:33:32;10.01;71.90
64638;HTU21D;51049;45.046;38.950;2023-03-17T06:36:49;10.07;71.87
64638;HTU21D;51049;45.046;38.950;2023-03-17T06:43:32;10.20;71.73
64638;HTU21D;51049;45.046;38.950;2023-03-17T06:46:25;10.26;71.87
64638;HTU21D;51049;45.046;38.950;2023-03-17T06:52:02;10.45;71.79
64638;HTU21D;51049;45.046;38.950;2023-03-17T06:54:47;10.49;71.83
64638;HTU21D;51049;45.046;38.950;2023-03-17T06:57:48;10.60;71.90
64638;HTU21D;51049;45.046;38.950;2023-03-17T07:00:22;10.75;71.78
64638;HTU21D;51049;45.046;38.950;2023-03-17T07:03:31;10.83;71.74
64638;HTU21D;51049;45.046;38.950;2023-03-17T07:10:25;10.94;71.76
64638;HTU21D;51049;45.046;38.950;2023-03-17T07:13:05;10.99;71.74
64638;HTU21D;51049;45.046;38.950;2023-03-17T07:15:34;11.07;71.80
64638;HTU21D;51049;45.046;38.950;2023-03-17T07:22:21;11.23;71.62
64638;HTU21D;51049;45.046;38.950;2023-03-17T07:25:49;11.26;71.62
64638;HTU21D;51049;45.046;38.950;2023-03-17T07:29:23;11.27;71.71
64638;HTU21D;51049;45.046;38.950;2023-03-17T08:13:22;11.34;71.77
64638;HTU21D;51049;45.046;38.950;2023-03-17T08:20:43;11.46;71.69
64638;HTU21D;51049;45.046;38.950;2023-03-17T08:42:49;11.66;71.60
64638;HTU21D;51049;45.046;38.950;2023-03-17T09:02:38;11.72;71.58
64638;HTU21D;51049;45.046;38.950;2023-03-17T09:05:09;11.75;71.57
64638;HTU21D;51049;45.046;38.950;2023-03-17T09:07:45;11.81;71.60
64638;HTU21D;51049;45.046;38.950;2023-03-17T09:10:40;11.86;71.64
64638;HTU21D;51049;45.046;38.950;2023-03-17T09:13:39;11.96;71.53
64638;HTU21D;51049;45.046;38.950;2023-03-17T09:16:09;12.05;71.47
64638;HTU21D;51049;45.046;38.950;2023-03-17T09:18:41;12.12;71.38
64638;HTU21D;51049;45.046;38.950;2023-03-17T09:21:08;12.12;71.35
64638;HTU21D;51049;45.046;38.950;2023-03-17T09:27:24;12.15;71.36
64638;HTU21D;51049;45.046;38.950;2023-03-17T09:29:55;12.16;71.43
64638;HTU21D;51049;45.046;38.950;2023-03-17T09:35:44;12.21;71.39
64638;HTU21D;51049;45.046;38.950;2023-03-17T09:39:02;12.21;71.45
64638;HTU21D;51049;45.046;38.950;2023-03-17T09:52:32;12.35;71.37
64638;HTU21D;51049;45.046;38.950;2023-03-17T09:59:01;12.49;71.19
64638;HTU21D;51049;45.046;38.950;2023-03-17T10:01:31;12.52;71.24
64638;HTU21D;51049;45.046;38.950;2023-03-17T10:03:57;12.61;71.23
64638;HTU21D;51049;45.046;38.950;2023-03-17T10:06:46;12.72;71.18
64638;HTU21D;51049;45.046;38.950;2023-03-17T10:09:51;12.77;71.07
64638;HTU21D;51049;45.046;38.950;2023-03-17T10:15:46;12.90;70.97
64638;HTU21D;51049;45.046;38.950;2023-03-17T10:18:34;12.93;70.93
64638;HTU21D;51049;45.046;38.950;2023-03-17T10:21:32;12.97;70.98
64638;HTU21D;51049;45.046;38.950;2023-03-17T10:24:07;13.05;70.90
64638;HTU21D;51049;45.046;38.950;2023-03-17T10:26:51;13.10;70.87
64638;HTU21D;51049;45.046;38.950;2023-03-17T10:29:22;13.14;70.80
64638;HTU21D;51049;45.046;38.950;2023-03-17T10:31:57;13.19;70.78
64638;HTU21D;51049;45.046;38.950;2023-03-17T10:34:32;13.27;70.75
64638;HTU21D;51049;45.046;38.950;2023-03-17T10:37:00;13.34;70.66
64638;HTU21D;51049;45.046;38.950;2023-03-17T10:49:35;13.64;70.35
64638;HTU21D;51049;45.046;38.950;2023-03-17T10:52:18;13.77;70.26
64638;HTU21D;51049;45.046;38.950;2023-03-17T11:01:40;13.75;70.08
64638;HTU21D;51049;45.046;38.950;2023-03-17T11:08:14;13.71;70.00
64638;HTU21D;51049;45.046;38.950;2023-03-17T11:11:35;13.67;69.94
64638;HTU21D;51049;45.046;38.950;2023-03-17T11:14:18;13.60;69.95
64638;HTU21D;51049;45.046;38.950;2023-03-17T11:16:58;13.50;69.94
64638;HTU21D;51049;45.046;38.950;2023-03-17T11:22:54;13.34;70.18
64638;HTU21D;51049;45.046;38.950;2023-03-17T11:25:39;13.35;70.17
64638;HTU21D;51049;45.046;38.950;2023-03-17T11:28:27;13.36;70.18
64638;HTU21D;51049;45.046;38.950;2023-03-17T11:34:05;13.40;70.10
64638;HTU21D;51049;45.046;38.950;2023-03-17T11:37:04;13.43;70.05
64638;HTU21D;51049;45.046;38.950;2023-03-17T11:42:42;13.41;70.04
64638;HTU21D;51049;45.046;38.950;2023-03-17T11:45:42;13.47;70.07
64638;HTU21D;51049;45.046;38.950;2023-03-17T12:56:36;16.93;66.08
64638;HTU21D;51049;45.046;38.950;2023-03-17T12:59:43;17.06;66.06
64638;HTU21D;51049;45.046;38.950;2023-03-17T13:05:27;17.51;65.75
64638;HTU21D;51049;45.046;38.950;2023-03-17T13:08:02;18.23;65.01
64638;HTU21D;51049;45.046;38.950;2023-03-17T13:10:42;18.91;64.34
64638;HTU21D;51049;45.046;38.950;2023-03-17T13:13:44;19.23;63.91
64638;HTU21D;51049;45.046;38.950;2023-03-17T13:16:41;19.61;63.50
64638;HTU21D;51049;45.046;38.950;2023-03-17T13:27:08;21.47;61.00
64638;HTU21D;51049;45.046;38.950;2023-03-17T13:34:18;22.22;59.73
64638;HTU21D;51049;45.046;38.950;2023-03-17T13:40:51;22.55;58.91
64638;HTU21D;51049;45.046;38.950;2023-03-17T13:46:38;22.49;58.70
64638;HTU21D;51049;45.046;38.950;2023-03-17T13:49:27;22.40;58.88
64638;HTU21D;51049;45.046;38.950;2023-03-17T14:02:15;22.17;58.74
64638;HTU21D;51049;45.046;38.950;2023-03-17T14:05:41;22.13;58.40
64638;HTU21D;51049;45.046;38.950;2023-03-17T14:08:37;21.95;58.41
64638;HTU21D;51049;45.046;38.950;2023-03-17T14:11:49;21.75;58.25
64638;HTU21D;51049;45.046;38.950;2023-03-17T14:14:52;21.66;58.05
64638;HTU21D;51049;45.046;38.950;2023-03-17T14:22:18;21.21;58.22
64638;HTU21D;51049;45.046;38.950;2023-03-17T14:29:03;20.66;58.99
64638;HTU21D;51049;45.046;38.950;2023-03-17T14:35:39;20.04;59.06
64638;HTU21D;51049;45.046;38.950;2023-03-17T14:38:27;19.82;58.99
64638;HTU21D;51049;45.046;38.950;2023-03-17T14:41:07;19.58;59.21
64638;HTU21D;51049;45.046;38.950;2023-03-17T14:44:01;19.35;59.43
64638;HTU21D;51049;45.046;38.950;2023-03-17T14:46:34;19.15;59.64
64638;HTU21D;51049;45.046;38.950;2023-03-17T14:49:26;18.88;59.88
64638;HTU21D;51049;45.046;38.950;2023-03-17T14:52:30;18.57;60.13
64638;HTU21D;51049;45.046;38.950;2023-03-17T14:55:39;18.11;60.57
64638;HTU21D;51049;45.046;38.950;2023-03-17T14:58:42;17.63;60.99
64638;HTU21D;51049;45.046;38.950;2023-03-17T15:01:36;17.13;61.45
64638;HTU21D;51049;45.046;38.950;2023-03-17T15:04:30;16.63;62.00
64638;HTU21D;51049;45.046;38.950;2023-03-17T15:07:42;16.15;62.60
64638;HTU21D;51049;45.046;38.950;2023-03-17T15:10:43;15.71;62.98
64638;HTU21D;51049;45.046;38.950;2023-03-17T15:13:24;15.36;63.26
64638;HTU21D;51049;45.046;38.950;2023-03-17T15:19:50;14.60;63.71
64638;HTU21D;51049;45.046;38.950;2023-03-17T15:27:20;13.93;64.22
64638;HTU21D;51049;45.046;38.950;2023-03-17T15:30:27;13.68;64.45
64638;HTU21D;51049;45.046;38.950;2023-03-17T15:35:59;13.34;64.76
64638;HTU21D;51049;45.046;38.950;2023-03-17T15:39:29;13.15;64.88
64638;HTU21D;51049;45.046;38.950;2023-03-17T15:42:32;12.99;65.02
64638;HTU21D;51049;45.046;38.950;2023-03-17T15:48:35;12.72;65.24
64638;HTU21D;51049;45.046;38.950;2023-03-17T15:51:39;12.61;65.32
64638;HTU21D;51049;45.046;38.950;2023-03-17T15:54:36;12.52;65.37
64638;HTU21D;51049;45.046;38.950;2023-03-17T15:57:55;12.44;65.40
64638;HTU21D;51049;45.046;38.950;2023-03-17T16:01:03;12.36;65.48
64638;HTU21D;51049;45.046;38.950;2023-03-17T16:03:35;12.31;65.52
64638;HTU21D;51049;45.046;38.950;2023-03-17T16:06:11;12.26;65.59
64638;HTU21D;51049;45.046;38.950;2023-03-17T16:09:37;12.19;65.66
64638;HTU21D;51049;45.046;38.950;2023-03-17T16:15:44;12.07;65.76
64638;HTU21D;51049;45.046;38.950;2023-03-17T16:18:48;12.02;65.81
64638;HTU21D;51049;45.046;38.950;2023-03-17T16:25:22;11.91;66.01
64638;HTU21D;51049;45.046;38.950;2023-03-17T16:28:23;11.87;66.05
64638;HTU21D;51049;45.046;38.950;2023-03-17T16:31:16;11.84;66.17
64638;HTU21D;51049;45.046;38.950;2023-03-17T16:34:46;11.81;66.21
64638;HTU21D;51049;45.046;38.950;2023-03-17T16:37:41;11.76;66.25
64638;HTU21D;51049;45.046;38.950;2023-03-17T16:44:17;11.77;66.28
64638;HTU21D;51049;45.046;38.950;2023-03-17T16:47:01;11.78;66.29
64638;HTU21D;51049;45.046;38.950;2023-03-17T16:53:45;11.81;66.31
64638;HTU21D;51049;45.046;38.950;2023-03-17T16:59:45;11.83;66.33
64638;HTU21D;51049;45.046;38.950;2023-03-17T17:03:12;11.83;66.38
64638;HTU21D;51049;45.046;38.950;2023-03-17T17:06:03;11.85;66.42
64638;HTU21D;51049;45.046;38.950;2023-03-17T17:08:34;11.85;66.42
64638;HTU21D;51049;45.046;38.950;2023-03-17T17:11:09;11.86;66.46
64638;HTU21D;51049;45.046;38.950;2023-03-17T17:13:54;11.86;66.50
64638;HTU21D;51049;45.046;38.950;2023-03-17T17:16:31;11.84;66.59
64638;HTU21D;51049;45.046;38.950;2023-03-17T17:19:27;11.83;66.67
64638;HTU21D;51049;45.046;38.950;2023-03-17T17:22:02;11.83;66.66
64638;HTU21D;51049;45.046;38.950;2023-03-17T17:24:46;11.83;66.68
64638;HTU21D;51049;45.046;38.950;2023-03-17T17:27:18;11.81;66.77
64638;HTU21D;51049;45.046;38.950;2023-03-17T17:33:10;11.81;66.81
64638;HTU21D;51049;45.046;38.950;2023-03-17T17:35:37;11.79;66.83
64638;HTU21D;51049;45.046;38.950;2023-03-17T17:38:09;11.81;66.87
64638;HTU21D;51049;45.046;38.950;2023-03-17T17:40:38;11.79;66.94
64638;HTU21D;51049;45.046;38.950;2023-03-17T17:43:15;11.79;67.01
64638;HTU21D;51049;45.046;38.950;2023-03-17T17:45:56;11.78;67.04
64638;HTU21D;51049;45.046;38.950;2023-03-17T17:48:39;11.78;67.07
64638;HTU21D;51049;45.046;38.950;2023-03-17T17:51:33;11.78;67.07
64638;HTU21D;51049;45.046;38.950;2023-03-17T17:54:21;11.77;67.12
64638;HTU21D;51049;45.046;38.950;2023-03-17T17:56:49;11.75;67.14
64638;HTU21D;51049;45.046;38.950;2023-03-17T17:59:15;11.75;67.20
64638;HTU21D;51049;45.046;38.950;2023-03-17T18:01:53;11.73;67.26
64638;HTU21D;51049;45.046;38.950;2023-03-17T18:05:08;11.73;67.29
64638;HTU21D;51049;45.046;38.950;2023-03-17T18:07:46;11.73;67.31
64638;HTU21D;51049;45.046;38.950;2023-03-17T18:10:21;11.72;67.39
64638;HTU21D;51049;45.046;38.950;2023-03-17T18:12:51;11.71;67.42
64638;HTU21D;51049;45.046;38.950;2023-03-17T18:15:24;11.72;67.49
64638;HTU21D;51049;45.046;38.950;2023-03-17T18:18:05;11.71;67.51
64638;HTU21D;51049;45.046;38.950;2023-03-17T18:20:39;11.70;67.57
64638;HTU21D;51049;45.046;38.950;2023-03-17T18:23:54;11.64;67.62
64638;HTU21D;51049;45.046;38.950;2023-03-17T18:26:21;11.60;67.63
64638;HTU21D;51049;45.046;38.950;2023-03-17T18:29:00;11.53;67.71
64638;HTU21D;51049;45.046;38.950;2023-03-17T18:34:20;11.37;67.97
64638;HTU21D;51049;45.046;38.950;2023-03-17T18:36:47;11.28;68.04
64638;HTU21D;51049;45.046;38.950;2023-03-17T18:39:14;11.19;68.18
64638;HTU21D;51049;45.046;38.950;2023-03-17T18:41:46;11.12;68.29
64638;HTU21D;51049;45.046;38.950;2023-03-17T18:44:16;11.04;68.38
64638;HTU21D;51049;45.046;38.950;2023-03-17T18:46:45;10.98;68.48
64638;HTU21D;51049;45.046;38.950;2023-03-17T18:49:11;10.93;68.57
64638;HTU21D;51049;45.046;38.950;2023-03-17T18:51:37;10.87;68.64
64638;HTU21D;51049;45.046;38.950;2023-03-17T18:54:09;10.83;68.70
64638;HTU21D;51049;45.046;38.950;2023-03-17T18:56:35;10.78;68.74
64638;HTU21D;51049;45.046;38.950;2023-03-17T18:59:01;10.73;68.80
64638;HTU21D;51049;45.046;38.950;2023-03-17T19:01:28;10.69;68.87
64638;HTU21D;51049;45.046;38.950;2023-03-17T19:03:54;10.65;68.92
64638;HTU21D;51049;45.046;38.950;2023-03-17T19:06:21;10.62;68.97
64638;HTU21D;51049;45.046;38.950;2023-03-17T19:08:48;10.57;69.02
64638;HTU21D;51049;45.046;38.950;2023-03-17T19:11:18;10.53;69.09
64638;HTU21D;51049;45.046;38.950;2023-03-17T19:13:46;10.52;69.12
64638;HTU21D;51049;45.046;38.950;2023-03-17T19:16:18;10.48;69.15
64638;HTU21D;51049;45.046;38.950;2023-03-17T19:18:46;10.44;69.20
64638;HTU21D;51049;45.046;38.950;2023-03-17T19:21:12;10.42;69.26
64638;HTU21D;51049;45.046;38.950;2023-03-17T19:23:41;10.38;69.32
64638;HTU21D;51049;45.046;38.950;2023-03-17T19:26:13;10.35;69.34
64638;HTU21D;51049;45.046;38.950;2023-03-17T19:28:39;10.31;69.39
64638;HTU21D;51049;45.046;38.950;2023-03-17T19:31:07;10.28;69.45
64638;HTU21D;51049;45.046;38.950;2023-03-17T19:33:37;10.25;69.45
64638;HTU21D;51049;45.046;38.950;2023-03-17T19:36:10;10.21;69.41
64638;HTU21D;51049;45.046;38.950;2023-03-17T19:38:36;10.18;69.46
64638;HTU21D;51049;45.046;38.950;2023-03-17T19:41:06;10.13;69.52
64638;HTU21D;51049;45.046;38.950;2023-03-17T19:43:38;10.12;69.55
64638;HTU21D;51049;45.046;38.950;2023-03-17T19:46:04;10.09;69.61
64638;HTU21D;51049;45.046;38.950;2023-03-17T19:48:32;10.08;69.68
64638;HTU21D;51049;45.046;38.950;2023-03-17T19:50:58;10.08;69.71
64638;HTU21D;51049;45.046;38.950;2023-03-17T19:53:28;10.09;69.71
64638;HTU21D;51049;45.046;38.950;2023-03-17T19:55:57;10.07;69.71
64638;HTU21D;51049;45.046;38.950;2023-03-17T19:58:31;10.08;69.73
64638;HTU21D;51049;45.046;38.950;2023-03-17T20:01:02;10.08;69.75
64638;HTU21D;51049;45.046;38.950;2023-03-17T20:03:28;10.06;69.78
64638;HTU21D;51049;45.046;38.950;2023-03-17T20:06:02;10.06;69.83
64638;HTU21D;51049;45.046;38.950;2023-03-17T20:08:31;10.06;69.84
64638;HTU21D;51049;45.046;38.950;2023-03-17T20:11:01;10.05;69.85
64638;HTU21D;51049;45.046;38.950;2023-03-17T20:13:31;10.03;69.87
64638;HTU21D;51049;45.046;38.950;2023-03-17T20:15:57;10.03;69.93
64638;HTU21D;51049;45.046;38.950;2023-03-17T20:18:27;10.01;69.97
64638;HTU21D;51049;45.046;38.950;2023-03-17T20:20:53;10.06;69.98
64638;HTU21D;51049;45.046;38.950;2023-03-17T20:23:22;10.08;69.97
64638;HTU21D;51049;45.046;38.950;2023-03-17T20:25:55;10.09;69.96
64638;HTU21D;51049;45.046;38.950;2023-03-17T20:28:22;10.11;69.93
64638;HTU21D;51049;45.046;38.950;2023-03-17T20:30:51;10.10;69.97
64638;HTU21D;51049;45.046;38.950;2023-03-17T20:33:18;10.09;70.00
64638;HTU21D;51049;45.046;38.950;2023-03-17T20:35:47;10.08;70.03
64638;HTU21D;51049;45.046;38.950;2023-03-17T20:38:14;10.07;70.08
64638;HTU21D;51049;45.046;38.950;2023-03-17T20:40:41;10.05;70.13
64638;HTU21D;51049;45.046;38.950;2023-03-17T20:43:10;10.04;70.17
64638;HTU21D;51049;45.046;38.950;2023-03-17T20:45:36;10.03;70.22
64638;HTU21D;51049;45.046;38.950;2023-03-17T20:48:11;10.05;70.26
64638;HTU21D;51049;45.046;38.950;2023-03-17T20:50:47;10.06;70.27
64638;HTU21D;51049;45.046;38.950;2023-03-17T20:53:14;10.08;70.23
64638;HTU21D;51049;45.046;38.950;2023-03-17T20:55:43;10.10;70.24
64638;HTU21D;51049;45.046;38.950;2023-03-17T20:58:10;10.11;70.24
64638;HTU21D;51049;45.046;38.950;2023-03-17T21:00:45;10.14;70.23
64638;HTU21D;51049;45.046;38.950;2023-03-17T21:03:19;10.18;70.20
64638;HTU21D;51049;45.046;38.950;2023-03-17T21:05:45;10.18;70.22
64638;HTU21D;51049;45.046;38.950;2023-03-17T21:08:15;10.18;70.26
64638;HTU21D;51049;45.046;38.950;2023-03-17T21:10:45;10.18;70.27
64638;HTU21D;51049;45.046;38.950;2023-03-17T21:13:11;10.16;70.30
64638;HTU21D;51049;45.046;38.950;2023-03-17T21:15:37;10.15;70.34
64638;HTU21D;51049;45.046;38.950;2023-03-17T21:18:06;10.15;70.39
64638;HTU21D;51049;45.046;38.950;2023-03-17T21:20:32;10.16;70.40
64638;HTU21D;51049;45.046;38.950;2023-03-17T21:22:58;10.19;70.42
64638;HTU21D;51049;45.046;38.950;2023-03-17T21:25:27;10.18;70.43
64638;HTU21D;51049;45.046;38.950;2023-03-17T21:27:53;10.16;70.45
64638;HTU21D;51049;45.046;38.950;2023-03-17T21:30:22;10.16;70.48
64638;HTU21D;51049;45.046;38.950;2023-03-17T21:32:50;10.15;70.52
64638;HTU21D;51049;45.046;38.950;2023-03-17T21:35:19;10.14;70.56
64638;HTU21D;51049;45.046;38.950;2023-03-17T21:37:49;10.13;70.61